createdAt,value
2017-06-13T06:23:57.484Z,1880
2017-06-13T06:24:38.057Z,1848
2017-06-13T06:25:18.633Z,1880
2017-06-13T06:25:59.244Z,1796
2017-06-13T06:26:39.808Z,1788
2017-06-13T06:27:20.388Z,1752
2017-06-13T06:28:01.074Z,1720
2017-06-13T06:28:41.666Z,1728
2017-06-13T06:29:22.243Z,1768
2017-06-13T06:30:02.976Z,2052
2017-06-13T06:30:43.606Z,1868
2017-06-13T06:31:24.174Z,1740
2017-06-13T06:32:04.830Z,1668
2017-06-13T06:32:45.480Z,1636
2017-06-13T06:33:26.136Z,1700
2017-06-13T06:34:06.773Z,1760
2017-06-13T06:34:47.433Z,1800
2017-06-13T06:35:28.091Z,1816
2017-06-13T06:36:08.741Z,1804
2017-06-13T06:36:49.440Z,1828
2017-06-13T06:37:31.073Z,1908
2017-06-13T06:38:11.828Z,2040
2017-06-13T06:38:53.067Z,1976
2017-06-13T06:39:33.747Z,1944
2017-06-13T06:40:14.396Z,1868
2017-06-13T06:40:55.048Z,1916
2017-06-13T06:41:35.709Z,2056
2017-06-13T06:42:16.362Z,1908
2017-06-13T06:42:57.016Z,1832
2017-06-13T06:43:39.102Z,1816
2017-06-13T06:44:19.745Z,1980
2017-06-13T06:45:00.440Z,2272
2017-06-13T06:45:41.056Z,2112
2017-06-13T06:46:21.713Z,2216
2017-06-13T06:47:02.363Z,2132
2017-06-13T06:47:43.013Z,2652
2017-06-13T06:48:23.671Z,3468
2017-06-13T06:49:04.332Z,2944
2017-06-13T06:49:44.878Z,2524
2017-06-13T06:50:25.526Z,2096
2017-06-13T06:51:06.195Z,1756
2017-06-13T06:51:46.759Z,1660
2017-06-13T06:52:28.404Z,1848
2017-06-13T06:53:09.059Z,2104
2017-06-13T06:53:49.662Z,2380
2017-06-13T06:54:30.265Z,2584
2017-06-13T06:55:10.913Z,2548
2017-06-13T06:55:51.575Z,2480
2017-06-13T06:56:32.218Z,2444
2017-06-13T06:57:12.880Z,2132
2017-06-13T06:57:53.525Z,2008
2017-06-13T06:58:34.183Z,1776
2017-06-13T06:59:14.837Z,1652
2017-06-13T06:59:55.485Z,1852
2017-06-13T07:00:36.143Z,2248
2017-06-13T07:01:16.792Z,2720
2017-06-13T07:01:57.444Z,2644
2017-06-13T07:02:38.098Z,2476
2017-06-13T07:03:18.645Z,1984
2017-06-13T07:03:59.359Z,1732
2017-06-13T07:04:39.949Z,1596
2017-06-13T07:05:20.642Z,1592
2017-06-13T07:06:01.221Z,1684
2017-06-13T07:06:41.862Z,2308
2017-06-13T07:07:22.533Z,2652
2017-06-13T07:08:03.111Z,2508
2017-06-13T07:08:43.733Z,2268
2017-06-13T07:09:24.431Z,1760
2017-06-13T07:10:05.094Z,1564
2017-06-13T07:10:45.731Z,1576
2017-06-13T07:11:26.393Z,1696
2017-06-13T07:12:07.141Z,2148
2017-06-13T07:12:47.805Z,2456
2017-06-13T07:13:28.445Z,2760
2017-06-13T07:14:09.102Z,2868
2017-06-13T07:14:49.752Z,2540
2017-06-13T07:15:30.323Z,2444
2017-06-13T07:16:10.946Z,2332
2017-06-13T07:16:51.627Z,2112
2017-06-13T07:17:32.339Z,2136
2017-06-13T07:18:18.715Z,2800
2017-06-13T07:19:00.361Z,2540
2017-06-13T07:19:41.082Z,2324
2017-06-13T07:20:21.767Z,2084
2017-06-13T07:21:03.420Z,2036
2017-06-13T07:21:44.583Z,1952
2017-06-13T07:22:25.161Z,2088
2017-06-13T07:23:06.930Z,2292
2017-06-13T07:23:47.485Z,2440
2017-06-13T07:24:28.068Z,2548
2017-06-13T07:25:08.823Z,2708
2017-06-13T07:25:49.446Z,2756
2017-06-13T07:26:30.084Z,3152
2017-06-13T07:27:10.664Z,3372
2017-06-13T07:27:51.288Z,2844
2017-06-13T07:28:31.952Z,2308
2017-06-13T07:29:13.608Z,2272
2017-06-13T07:29:54.194Z,2528
2017-06-13T07:30:34.813Z,2856
2017-06-13T07:31:15.389Z,3568
2017-06-13T07:31:56.025Z,2836
2017-06-13T07:32:36.598Z,2152
2017-06-13T07:33:17.241Z,1716
2017-06-13T07:33:57.824Z,1644
2017-06-13T07:34:38.420Z,1472
2017-06-13T07:35:18.974Z,1512
2017-06-13T07:35:59.626Z,1752
2017-06-13T07:36:40.284Z,1964
2017-06-13T07:37:21.292Z,2128
2017-06-13T07:38:02.543Z,2188
2017-06-13T07:38:43.169Z,2292
2017-06-13T07:39:23.824Z,2320
2017-06-13T07:40:04.466Z,2816
2017-06-13T07:40:45.116Z,3300
2017-06-13T07:41:25.766Z,3036
2017-06-13T07:42:06.427Z,2788
2017-06-13T07:42:47.076Z,2532
2017-06-13T07:43:27.840Z,2148
2017-06-13T07:44:08.516Z,1872
2017-06-13T07:44:49.150Z,1732
2017-06-13T07:45:29.799Z,1556
2017-06-13T07:46:10.470Z,1688
2017-06-13T07:46:51.203Z,1808
2017-06-13T07:47:31.855Z,1868
2017-06-13T07:48:12.524Z,1908
2017-06-13T07:48:53.156Z,2000
2017-06-13T07:49:33.886Z,2264
2017-06-13T07:50:14.656Z,2480
2017-06-13T07:50:55.378Z,2308
2017-06-13T07:51:36.041Z,2288
2017-06-13T07:52:16.603Z,2292
2017-06-13T07:52:58.232Z,2384
2017-06-13T07:53:38.817Z,2792
2017-06-13T07:54:19.479Z,3204
2017-06-13T07:55:00.060Z,3052
2017-06-13T07:55:40.681Z,2724
2017-06-13T07:56:21.335Z,2440
2017-06-13T07:57:02.011Z,2052
2017-06-13T07:57:42.636Z,1688
2017-06-13T07:58:23.285Z,1464
2017-06-13T07:59:03.862Z,1340
2017-06-13T07:59:45.243Z,1524
2017-06-13T08:00:26.904Z,1792
2017-06-13T08:01:07.550Z,2048
2017-06-13T08:01:48.191Z,2052
2017-06-13T08:02:28.854Z,2028
2017-06-13T08:03:09.508Z,2040
2017-06-13T08:03:50.285Z,2140
2017-06-13T08:04:30.946Z,2296
2017-06-13T08:05:12.682Z,2528
2017-06-13T08:05:53.356Z,3272
2017-06-13T08:06:34.017Z,3556
2017-06-13T08:07:14.666Z,3556
2017-06-13T08:07:55.309Z,3532
2017-06-13T08:08:35.878Z,3196
2017-06-13T08:09:16.519Z,2872
2017-06-13T08:09:57.192Z,2584
2017-06-13T08:10:37.808Z,2260
2017-06-13T08:11:18.462Z,2120
2017-06-13T08:11:59.122Z,2184
2017-06-13T08:12:39.774Z,2388
2017-06-13T08:13:20.346Z,2484
2017-06-13T08:14:00.979Z,2468
2017-06-13T08:14:41.580Z,2492
2017-06-13T08:15:22.173Z,2492
2017-06-13T08:16:02.824Z,2784
2017-06-13T08:16:43.391Z,2984
2017-06-13T08:17:24.028Z,2792
2017-06-13T08:18:04.689Z,2856
2017-06-13T08:18:45.276Z,3120
2017-06-13T08:19:25.909Z,3548
2017-06-13T08:20:06.484Z,3748
2017-06-13T08:20:47.049Z,3860
2017-06-13T08:21:27.660Z,3672
2017-06-13T08:22:08.258Z,3492
2017-06-13T08:22:48.857Z,3596
2017-06-13T08:23:29.516Z,3604
2017-06-13T08:24:10.082Z,3392
2017-06-13T08:24:50.663Z,3320
2017-06-13T08:25:31.222Z,3128
2017-06-13T08:26:11.821Z,2952
2017-06-13T08:26:52.566Z,2888
2017-06-13T08:27:33.190Z,2804
2017-06-13T08:28:14.868Z,2628
2017-06-13T08:28:55.444Z,2428
2017-06-13T08:29:36.021Z,2276
2017-06-13T08:30:16.654Z,2176
2017-06-13T08:30:57.229Z,2116
2017-06-13T08:31:37.800Z,2048
2017-06-13T08:32:18.503Z,1984
2017-06-13T08:33:00.215Z,1976
2017-06-13T08:33:40.840Z,1980
2017-06-13T08:34:21.435Z,1988
2017-06-13T08:35:02.192Z,1976
2017-06-13T08:35:42.858Z,1924
2017-06-13T08:36:23.448Z,1816
2017-06-13T08:37:04.098Z,1732
2017-06-13T08:37:44.763Z,1760
2017-06-13T08:38:25.415Z,1800
2017-06-13T08:39:06.060Z,1780
2017-06-13T08:39:46.769Z,2008
2017-06-13T08:40:27.431Z,2368
2017-06-13T08:41:08.031Z,2520
2017-06-13T08:41:48.670Z,2612
2017-06-13T08:42:29.247Z,2752
2017-06-13T08:43:09.823Z,2964
2017-06-13T08:43:57.392Z,3228
2017-06-13T08:44:37.971Z,3440
2017-06-13T08:45:18.534Z,3616
2017-06-13T08:45:59.200Z,3704
2017-06-13T08:46:39.839Z,3752
2017-06-13T08:47:20.455Z,3800
2017-06-13T08:48:01.036Z,3804
2017-06-13T08:48:41.647Z,3884
2017-06-13T08:49:22.223Z,4000
2017-06-13T08:50:02.858Z,4144
2017-06-13T08:50:43.459Z,4140
2017-06-13T08:51:24.063Z,3876
2017-06-13T08:52:04.627Z,3808
2017-06-13T08:52:45.267Z,3812
2017-06-13T08:53:25.923Z,3576
2017-06-13T08:54:07.521Z,3572
2017-06-13T08:54:48.073Z,2956
2017-06-13T08:55:29.925Z,2592
2017-06-13T08:56:10.584Z,2272
2017-06-13T08:56:51.158Z,2052
2017-06-13T08:57:31.788Z,1912
2017-06-13T08:58:12.371Z,1876
2017-06-13T08:58:53.034Z,1864
2017-06-13T08:59:33.657Z,1836
2017-06-13T09:00:14.403Z,1788
2017-06-13T09:00:55.063Z,1736
2017-06-13T09:01:35.715Z,1724
2017-06-13T09:02:16.355Z,1712
2017-06-13T09:02:58.035Z,1880
2017-06-13T09:03:38.618Z,2216
2017-06-13T09:04:19.237Z,2660
2017-06-13T09:04:59.817Z,2984
2017-06-13T09:05:40.513Z,3088
2017-06-13T09:06:21.190Z,2996
2017-06-13T09:07:01.758Z,3124
2017-06-13T09:07:42.396Z,3536
2017-06-13T09:08:23.034Z,3836
2017-06-13T09:09:07.201Z,3668
2017-06-13T09:09:47.914Z,3376
2017-06-13T09:10:29.568Z,3200
2017-06-13T09:11:10.162Z,3000
2017-06-13T09:11:50.818Z,2728
2017-06-13T09:12:31.464Z,2524
2017-06-13T09:13:12.119Z,2340
2017-06-13T09:13:52.812Z,1980
2017-06-13T09:14:33.428Z,1636
2017-06-13T09:15:15.099Z,1480
2017-06-13T09:15:55.761Z,1376
2017-06-13T09:16:40.915Z,1200
2017-06-13T09:17:26.490Z,1068
2017-06-13T09:18:07.144Z,1020
2017-06-13T09:18:47.852Z,960
2017-06-13T09:19:28.452Z,876
2017-06-13T09:20:09.107Z,780
2017-06-13T09:20:49.800Z,688
2017-06-13T09:21:30.545Z,628
2017-06-13T09:22:11.290Z,648
2017-06-13T09:22:51.915Z,632
2017-06-13T09:23:32.578Z,556
2017-06-13T09:24:13.154Z,512
2017-06-13T09:24:53.777Z,532
2017-06-13T09:25:34.429Z,588
2017-06-13T09:26:15.089Z,700
2017-06-13T09:26:55.681Z,816
2017-06-13T09:27:36.259Z,896
2017-06-13T09:28:16.941Z,980
2017-06-13T09:28:57.516Z,1064
2017-06-13T09:29:38.118Z,1120
2017-06-13T09:30:18.642Z,1176
2017-06-13T09:30:59.256Z,1260
2017-06-13T09:31:39.856Z,1344
2017-06-13T09:32:20.470Z,1416
2017-06-13T09:33:01.028Z,1496
2017-06-13T09:33:41.598Z,1580
2017-06-13T09:34:22.172Z,1696
2017-06-13T09:35:02.856Z,1852
2017-06-13T09:35:43.561Z,2016
2017-06-13T09:36:24.132Z,2200
2017-06-13T09:37:04.701Z,2376
2017-06-13T09:37:45.300Z,2552
2017-06-13T09:38:26.863Z,2776
2017-06-13T09:39:08.572Z,2972
2017-06-13T09:39:49.178Z,3144
2017-06-13T09:40:29.790Z,3344
2017-06-13T09:41:11.458Z,3524
2017-06-13T09:41:54.044Z,3704
2017-06-13T09:42:34.632Z,3792
2017-06-13T09:43:15.223Z,3868
2017-06-13T09:43:55.800Z,3908
2017-06-13T09:44:38.614Z,3884
2017-06-13T09:45:19.210Z,3876
2017-06-13T09:45:59.781Z,3948
2017-06-13T09:46:42.351Z,3972
2017-06-13T09:47:25.024Z,3988
2017-06-13T09:48:06.643Z,4000
2017-06-13T09:48:47.210Z,4044
2017-06-13T09:49:33.640Z,3992
2017-06-13T09:50:14.249Z,3924
2017-06-13T09:50:54.829Z,3832
2017-06-13T09:51:35.422Z,3884
2017-06-13T09:52:16.013Z,4008
2017-06-13T09:52:56.553Z,4096
2017-06-13T09:53:38.150Z,4112
2017-06-13T09:54:20.723Z,4096
2017-06-13T09:55:02.302Z,4080
2017-06-13T09:55:42.853Z,4028
2017-06-13T09:56:23.434Z,3920
2017-06-13T09:57:05.022Z,3832
2017-06-13T09:57:45.613Z,3808
2017-06-13T09:58:26.197Z,3804
2017-06-13T09:59:06.774Z,3860
2017-06-13T09:59:48.333Z,3936
2017-06-13T10:00:28.924Z,3988
2017-06-13T10:01:10.497Z,4000
2017-06-13T10:01:52.073Z,4064
2017-06-13T10:02:32.727Z,4056
2017-06-13T10:03:13.326Z,4036
2017-06-13T10:03:53.920Z,3992
2017-06-13T10:04:34.508Z,3980
2017-06-13T10:05:15.062Z,4028
2017-06-13T10:05:55.655Z,4104
2017-06-13T10:06:36.223Z,3984
2017-06-13T10:07:16.825Z,4052
2017-06-13T10:07:57.365Z,4092
2017-06-13T10:08:37.937Z,3676
2017-06-13T10:09:18.506Z,3168
2017-06-13T10:10:01.090Z,3132
2017-06-13T10:10:41.650Z,2720
2017-06-13T10:11:22.273Z,2404
2017-06-13T10:12:02.867Z,2244
2017-06-13T10:12:43.449Z,2500
2017-06-13T10:13:24.090Z,2328
2017-06-13T10:14:04.669Z,2272
2017-06-13T10:14:45.234Z,2320
2017-06-13T10:15:25.826Z,2188
2017-06-13T10:16:07.450Z,2048
2017-06-13T10:16:48.055Z,1976
2017-06-13T10:17:28.621Z,2004
2017-06-13T10:18:09.200Z,2068
2017-06-13T10:18:50.776Z,2100
2017-06-13T10:19:32.348Z,1804
2017-06-13T10:20:12.905Z,1972
2017-06-13T10:20:54.476Z,2056
2017-06-13T10:21:35.072Z,2268
2017-06-13T10:22:16.656Z,2520
2017-06-13T10:22:57.239Z,2716
2017-06-13T10:23:37.801Z,2948
2017-06-13T10:24:19.412Z,3444
2017-06-13T10:25:01.005Z,3420
2017-06-13T10:25:41.580Z,3648
2017-06-13T10:26:22.245Z,3916
2017-06-13T10:27:02.807Z,4260
2017-06-13T10:27:43.480Z,4272
2017-06-13T10:28:25.119Z,4448
2017-06-13T10:29:05.704Z,4528
2017-06-13T10:29:46.315Z,4508
2017-06-13T10:30:26.902Z,4472
2017-06-13T10:31:07.506Z,4484
2017-06-13T10:31:48.196Z,4624
2017-06-13T10:32:28.761Z,4332
2017-06-13T10:33:09.366Z,4164
2017-06-13T10:33:51.048Z,4232
2017-06-13T10:34:31.631Z,3704
2017-06-13T10:35:12.189Z,3280
2017-06-13T10:35:52.749Z,2744
2017-06-13T10:36:35.404Z,2204
2017-06-13T10:37:15.980Z,1892
2017-06-13T10:37:56.577Z,1872
2017-06-13T10:38:37.156Z,1968
2017-06-13T10:39:17.743Z,2028
2017-06-13T10:39:58.405Z,2040
2017-06-13T10:40:38.998Z,2000
2017-06-13T10:41:19.558Z,1936
2017-06-13T10:42:02.132Z,1852
2017-06-13T10:42:42.708Z,1768
2017-06-13T10:43:23.286Z,1672
2017-06-13T10:44:04.863Z,1556
2017-06-13T10:44:45.424Z,1428
2017-06-13T10:45:25.999Z,1312
2017-06-13T10:46:07.586Z,1188
2017-06-13T10:46:48.193Z,1056
2017-06-13T10:47:28.760Z,916
2017-06-13T10:48:09.328Z,792
2017-06-13T10:48:49.901Z,748
2017-06-13T10:49:30.497Z,768
2017-06-13T10:50:11.095Z,788
2017-06-13T10:50:51.727Z,764
2017-06-13T10:51:32.315Z,728
2017-06-13T10:52:12.895Z,700
2017-06-13T10:52:53.474Z,692
2017-06-13T10:53:34.064Z,724
2017-06-13T10:54:14.660Z,808
2017-06-13T10:54:55.263Z,948
2017-06-13T10:55:35.831Z,1088
2017-06-13T10:56:16.407Z,1212
2017-06-13T10:56:57.061Z,1344
2017-06-13T10:57:37.691Z,1460
2017-06-13T10:58:18.357Z,1536
2017-06-13T10:58:59.004Z,1580
2017-06-13T10:59:46.522Z,1640
2017-06-13T11:00:27.165Z,1704
2017-06-13T11:01:07.740Z,1780
2017-06-13T11:01:48.368Z,1856
2017-06-13T11:02:30.045Z,1936
2017-06-13T11:03:10.607Z,2056
2017-06-13T11:03:51.259Z,2188
2017-06-13T11:04:32.932Z,2372
2017-06-13T11:05:13.487Z,2572
2017-06-13T11:05:57.108Z,2820
2017-06-13T11:06:37.758Z,3072
2017-06-13T11:07:18.325Z,3292
2017-06-13T11:07:58.905Z,3432
2017-06-13T11:08:39.532Z,3568
2017-06-13T11:09:20.168Z,3668
2017-06-13T11:10:00.733Z,3760
2017-06-13T11:10:41.324Z,3876
2017-06-13T11:11:21.946Z,3968
2017-06-13T11:12:02.572Z,4048
2017-06-13T11:12:43.150Z,4072
2017-06-13T11:13:24.771Z,4056
2017-06-13T11:14:07.441Z,3964
2017-06-13T11:14:48.059Z,3972
2017-06-13T11:15:28.603Z,4012
2017-06-13T11:16:09.252Z,4052
2017-06-13T11:16:49.906Z,4088
2017-06-13T11:17:30.477Z,4104
2017-06-13T11:18:11.055Z,4108
2017-06-13T11:18:51.708Z,4116
2017-06-13T11:19:32.279Z,4076
2017-06-13T11:20:13.017Z,4072
2017-06-13T11:20:53.675Z,4120
2017-06-13T11:21:34.242Z,4140
2017-06-13T11:22:14.849Z,4144
2017-06-13T11:22:55.426Z,4144
2017-06-13T11:23:36.017Z,4096
2017-06-13T11:24:16.589Z,4204
2017-06-13T11:24:57.196Z,4352
2017-06-13T11:25:37.804Z,4664
2017-06-13T11:26:18.362Z,4316
2017-06-13T11:26:58.976Z,4324
2017-06-13T11:27:40.161Z,4316
2017-06-13T11:28:20.751Z,4284
2017-06-13T11:29:02.032Z,4204
2017-06-13T11:29:42.614Z,4176
2017-06-13T11:30:24.170Z,4184
2017-06-13T11:31:04.759Z,4224
2017-06-13T11:31:45.349Z,4316
2017-06-13T11:32:25.915Z,4124
2017-06-13T11:33:06.487Z,4068
2017-06-13T11:33:47.060Z,3952
2017-06-13T11:34:27.614Z,3948
2017-06-13T11:35:08.203Z,3988
2017-06-13T11:35:48.762Z,3960
2017-06-13T11:36:29.421Z,3948
2017-06-13T11:37:09.997Z,3264
2017-06-13T11:37:50.572Z,3024
2017-06-13T11:38:31.155Z,2612
2017-06-13T11:39:11.736Z,2304
2017-06-13T11:39:52.311Z,1960
2017-06-13T11:40:32.899Z,2212
2017-06-13T11:41:13.469Z,2336
2017-06-13T11:41:54.038Z,2632
2017-06-13T11:42:34.672Z,3180
2017-06-13T11:43:15.857Z,3368
2017-06-13T11:43:56.444Z,3556
2017-06-13T11:44:37.143Z,3684
2017-06-13T11:45:17.792Z,3652
2017-06-13T11:45:58.368Z,3540
2017-06-13T11:46:38.946Z,3436
2017-06-13T11:47:19.615Z,3392
2017-06-13T11:48:00.199Z,3356
2017-06-13T11:48:40.849Z,3288
2017-06-13T11:49:21.438Z,3144
2017-06-13T11:50:02.117Z,3232
2017-06-13T11:50:42.695Z,3452
2017-06-13T11:51:23.365Z,3492
2017-06-13T11:52:04.024Z,3248
2017-06-13T11:52:44.670Z,2804
2017-06-13T11:53:25.322Z,2268
2017-06-13T11:54:05.975Z,1824
2017-06-13T11:54:46.633Z,1660
2017-06-13T11:55:27.281Z,1804
2017-06-13T11:56:07.958Z,2084
2017-06-13T11:56:48.587Z,2392
2017-06-13T11:57:29.245Z,2552
2017-06-13T11:58:09.899Z,2524
2017-06-13T11:58:50.568Z,2484
2017-06-13T11:59:31.203Z,2472
2017-06-13T12:00:11.854Z,2336
2017-06-13T12:00:52.508Z,2180
2017-06-13T12:01:33.160Z,2008
2017-06-13T12:02:13.835Z,1844
2017-06-13T12:02:54.476Z,1688
2017-06-13T12:03:35.120Z,1612
2017-06-13T12:04:15.775Z,1580
2017-06-13T12:04:56.424Z,1552
2017-06-13T12:05:37.075Z,1524
2017-06-13T12:06:17.730Z,1504
2017-06-13T12:06:58.387Z,1460
2017-06-13T12:07:39.041Z,1408
2017-06-13T12:08:19.690Z,1348
2017-06-13T12:09:00.342Z,1332
2017-06-13T12:09:40.996Z,1328
2017-06-13T12:10:21.649Z,1296
2017-06-13T12:11:02.310Z,1272
2017-06-13T12:11:42.965Z,1260
2017-06-13T12:12:23.628Z,1268
2017-06-13T12:13:04.265Z,1284
2017-06-13T12:13:44.918Z,1324
2017-06-13T12:14:25.570Z,1388
2017-06-13T12:15:06.281Z,1476
2017-06-13T12:15:46.871Z,1572
2017-06-13T12:16:27.537Z,1664
2017-06-13T12:17:08.198Z,1740
2017-06-13T12:17:48.830Z,1764
2017-06-13T12:18:29.482Z,1772
2017-06-13T12:19:10.152Z,1772
2017-06-13T12:19:50.789Z,1756
2017-06-13T12:20:31.462Z,1740
2017-06-13T12:21:12.096Z,1728
2017-06-13T12:21:52.781Z,1724
2017-06-13T12:22:33.416Z,1744
2017-06-13T12:23:13.992Z,1796
2017-06-13T12:23:54.603Z,1864
2017-06-13T12:24:35.268Z,1900
2017-06-13T12:25:15.832Z,1964
2017-06-13T12:25:56.555Z,2080
2017-06-13T12:26:37.232Z,2272
2017-06-13T12:27:17.889Z,2484
2017-06-13T12:27:58.473Z,2636
2017-06-13T12:28:39.150Z,2764
2017-06-13T12:29:19.744Z,2768
2017-06-13T12:30:00.391Z,2676
2017-06-13T12:30:41.034Z,2652
2017-06-13T12:31:21.686Z,2636
2017-06-13T12:32:02.349Z,2604
2017-06-13T12:32:42.991Z,2616
2017-06-13T12:33:23.645Z,2588
2017-06-13T12:34:04.298Z,2568
2017-06-13T12:34:44.954Z,2516
2017-06-13T12:35:25.539Z,2448
2017-06-13T12:36:06.175Z,2412
2017-06-13T12:36:46.810Z,2400
2017-06-13T12:37:27.361Z,2380
2017-06-13T12:38:07.991Z,2316
2017-06-13T12:38:48.665Z,2252
2017-06-13T12:39:29.279Z,2184
2017-06-13T12:40:09.881Z,2116
2017-06-13T12:40:50.525Z,2044
2017-06-13T12:41:31.091Z,1976
2017-06-13T12:42:11.800Z,1928
2017-06-13T12:42:52.479Z,1904
2017-06-13T12:43:33.242Z,1884
2017-06-13T12:44:13.841Z,1880
2017-06-13T12:44:54.507Z,1860
2017-06-13T12:45:36.225Z,1860
2017-06-13T12:46:16.871Z,1860
2017-06-13T12:46:58.356Z,1868
2017-06-13T12:47:38.946Z,1904
2017-06-13T12:48:19.565Z,1944
2017-06-13T12:49:00.202Z,1988
2017-06-13T12:49:40.802Z,2036
2017-06-13T12:50:21.482Z,2096
2017-06-13T12:51:02.159Z,2208
2017-06-13T12:51:42.811Z,2372
2017-06-13T12:52:24.098Z,2540
2017-06-13T12:53:04.745Z,2684
2017-06-13T12:53:45.388Z,2776
2017-06-13T12:54:26.048Z,2844
2017-06-13T12:55:06.694Z,2884
2017-06-13T12:55:47.361Z,2900
2017-06-13T12:56:27.938Z,2928
2017-06-13T12:57:08.629Z,2944
2017-06-13T12:57:49.314Z,2964
2017-06-13T12:58:30.594Z,2968
2017-06-13T12:59:11.262Z,2936
2017-06-13T12:59:51.979Z,2980
2017-06-13T13:00:32.632Z,2984
2017-06-13T13:01:13.298Z,2948
2017-06-13T13:01:53.943Z,2884
2017-06-13T13:02:34.607Z,2832
2017-06-13T13:03:15.247Z,2772
2017-06-13T13:03:55.901Z,2688
2017-06-13T13:04:37.391Z,2628
2017-06-13T13:05:18.043Z,2608
2017-06-13T13:05:58.681Z,2624
2017-06-13T13:06:39.332Z,2656
2017-06-13T13:07:19.991Z,2668
2017-06-13T13:08:00.636Z,2688
2017-06-13T13:08:41.288Z,2700
2017-06-13T13:09:21.949Z,2728
2017-06-13T13:10:02.610Z,2740
2017-06-13T13:10:43.197Z,2772
2017-06-13T13:11:23.879Z,2812
2017-06-13T13:12:04.567Z,2844
2017-06-13T13:12:45.214Z,2852
2017-06-13T13:13:25.789Z,2828
2017-06-13T13:14:06.385Z,2788
2017-06-13T13:14:46.962Z,2740
2017-06-13T13:15:27.627Z,2704
2017-06-13T13:16:08.196Z,2668
2017-06-13T13:16:48.831Z,2628
2017-06-13T13:17:29.473Z,2584
2017-06-13T13:18:10.030Z,2564
2017-06-13T13:18:50.677Z,2560
2017-06-13T13:19:31.343Z,2552
2017-06-13T13:20:12.145Z,2576
2017-06-13T13:20:52.789Z,2676
2017-06-13T13:21:33.409Z,2824
2017-06-13T13:22:13.992Z,3000
2017-06-13T13:22:54.601Z,3188
2017-06-13T13:23:35.276Z,3364
2017-06-13T13:24:15.846Z,3492
2017-06-13T13:24:56.446Z,3560
2017-06-13T13:25:37.107Z,3612
2017-06-13T13:26:17.771Z,3644
2017-06-13T13:26:58.422Z,3664
2017-06-13T13:27:39.070Z,3692
2017-06-13T13:28:19.719Z,3644
2017-06-13T13:29:00.373Z,3608
2017-06-13T13:29:41.134Z,3552
2017-06-13T13:30:21.676Z,3500
2017-06-13T13:31:02.560Z,3440
2017-06-13T13:31:43.323Z,3412
2017-06-13T13:32:23.959Z,3396
2017-06-13T13:33:04.606Z,3392
2017-06-13T13:33:45.271Z,3376
2017-06-13T13:34:25.900Z,3200
2017-06-13T13:35:06.552Z,2792
2017-06-13T13:35:47.114Z,2384
2017-06-13T13:36:27.729Z,2304
2017-06-13T13:37:09.338Z,2356
2017-06-13T13:37:49.983Z,2308
2017-06-13T13:38:30.572Z,2208
2017-06-13T13:39:11.163Z,2088
2017-06-13T13:39:51.762Z,1924
2017-06-13T13:40:32.387Z,1652
2017-06-13T13:41:12.943Z,1444
2017-06-13T13:41:54.220Z,1284
2017-06-13T13:42:34.872Z,1212
2017-06-13T13:43:15.511Z,1200
2017-06-13T13:43:56.111Z,1264
2017-06-13T13:44:36.793Z,1272
2017-06-13T13:45:17.486Z,1220
2017-06-13T13:45:58.124Z,1124
2017-06-13T13:46:38.783Z,1004
2017-06-13T13:47:19.429Z,960
2017-06-13T13:48:00.085Z,1000
2017-06-13T13:48:40.746Z,980
2017-06-13T13:49:21.397Z,896
2017-06-13T13:50:02.057Z,876
2017-06-13T13:50:42.629Z,944
2017-06-13T13:51:23.226Z,1064
2017-06-13T13:52:03.916Z,1192
2017-06-13T13:52:44.559Z,1300
2017-06-13T13:53:25.127Z,1372
2017-06-13T13:54:05.767Z,1372
2017-06-13T13:54:46.449Z,1344
2017-06-13T13:55:27.073Z,1324
2017-06-13T13:56:07.721Z,1288
2017-06-13T13:56:48.392Z,1208
2017-06-13T13:57:29.034Z,1100
2017-06-13T13:58:09.688Z,980
2017-06-13T13:58:50.339Z,892
2017-06-13T13:59:30.993Z,840
2017-06-13T14:00:11.640Z,796
2017-06-13T14:00:52.292Z,752
2017-06-13T14:01:32.987Z,696
2017-06-13T14:02:13.598Z,648
2017-06-13T14:02:54.257Z,612
2017-06-13T14:03:34.905Z,572
2017-06-13T14:04:15.557Z,540
2017-06-13T14:04:56.208Z,504
2017-06-13T14:05:36.757Z,480
2017-06-13T14:06:17.415Z,464
2017-06-13T14:06:58.066Z,468
2017-06-13T14:07:38.677Z,488
2017-06-13T14:08:19.266Z,512
2017-06-13T14:08:59.919Z,544
2017-06-13T14:09:40.505Z,576
2017-06-13T14:10:21.123Z,616
2017-06-13T14:11:01.799Z,656
2017-06-13T14:11:42.430Z,716
2017-06-13T14:12:23.086Z,792
2017-06-13T14:13:03.735Z,900
2017-06-13T14:13:44.392Z,1080
2017-06-13T14:14:25.066Z,1296
2017-06-13T14:15:05.704Z,1516
2017-06-13T14:15:46.343Z,1720
2017-06-13T14:16:27.003Z,1864
2017-06-13T14:17:08.686Z,1940
2017-06-13T14:17:49.266Z,1968
2017-06-13T14:18:29.880Z,1980
2017-06-13T14:19:10.542Z,1980
2017-06-13T14:19:51.185Z,1984
2017-06-13T14:20:31.950Z,2004
2017-06-13T14:21:13.702Z,2076
2017-06-13T14:21:54.382Z,2132
2017-06-13T14:22:35.035Z,2216
2017-06-13T14:23:15.687Z,2360
2017-06-13T14:23:56.331Z,2532
2017-06-13T14:24:36.992Z,2732
2017-06-13T14:25:17.654Z,2896
2017-06-13T14:25:58.294Z,3008
2017-06-13T14:26:38.940Z,3072
2017-06-13T14:27:19.609Z,3100
2017-06-13T14:28:00.265Z,3088
2017-06-13T14:28:40.970Z,3076
2017-06-13T14:29:22.646Z,3048
2017-06-13T14:30:03.304Z,3012
2017-06-13T14:30:45.991Z,3000
2017-06-13T14:31:26.650Z,2956
2017-06-13T14:32:09.237Z,2904
2017-06-13T14:32:49.891Z,2792
2017-06-13T14:33:30.590Z,2664
2017-06-13T14:34:11.223Z,2548
2017-06-13T14:34:51.875Z,2420
2017-06-13T14:35:33.532Z,2288
2017-06-13T14:36:14.129Z,2176
2017-06-13T14:36:54.790Z,2072
2017-06-13T14:37:35.421Z,1976
2017-06-13T14:38:16.043Z,1876
2017-06-13T14:38:56.625Z,1788
2017-06-13T14:39:38.214Z,1688
2017-06-13T14:40:18.835Z,1580
2017-06-13T14:40:59.446Z,1468
2017-06-13T14:41:40.142Z,1340
2017-06-13T14:42:20.779Z,1228
2017-06-13T14:43:02.455Z,1168
2017-06-13T14:43:43.109Z,1124
2017-06-13T14:44:24.787Z,1056
2017-06-13T14:45:05.448Z,984
2017-06-13T14:45:46.107Z,900
2017-06-13T14:46:28.695Z,832
2017-06-13T14:47:09.362Z,776
2017-06-13T14:47:49.991Z,712
2017-06-13T14:48:31.680Z,668
2017-06-13T14:49:12.319Z,628
2017-06-13T14:49:54.927Z,592
2017-06-13T14:50:35.514Z,548
2017-06-13T14:51:16.224Z,524
2017-06-13T14:52:07.532Z,500
2017-06-13T14:52:48.200Z,484
2017-06-13T14:53:28.768Z,460
2017-06-13T14:54:09.424Z,452
2017-06-13T14:54:50.062Z,448
2017-06-13T14:55:31.705Z,440
2017-06-13T14:56:13.412Z,436
2017-06-13T14:56:54.104Z,448
2017-06-13T14:57:34.746Z,456
2017-06-13T14:58:15.421Z,460
2017-06-13T14:58:56.053Z,468
2017-06-13T14:59:36.702Z,492
2017-06-13T15:00:17.367Z,524
2017-06-13T15:00:57.926Z,588
2017-06-13T15:01:38.553Z,664
2017-06-13T15:02:19.212Z,728
2017-06-13T15:02:59.864Z,800
2017-06-13T15:03:40.456Z,896
2017-06-13T15:04:21.147Z,1044
2017-06-13T15:05:01.830Z,1256
2017-06-13T15:05:42.480Z,1528
2017-06-13T15:06:23.040Z,1812
2017-06-13T15:07:03.630Z,2024
2017-06-13T15:07:44.230Z,2136
2017-06-13T15:08:24.895Z,2124
2017-06-13T15:09:05.511Z,2040
2017-06-13T15:09:46.232Z,1996
2017-06-13T15:10:26.867Z,1996
2017-06-13T15:11:08.522Z,2008
2017-06-13T15:11:49.096Z,1968
2017-06-13T15:12:29.698Z,1940
2017-06-13T15:13:10.376Z,1948
2017-06-13T15:13:51.031Z,2060
2017-06-13T15:14:31.682Z,2216
2017-06-13T15:15:12.342Z,2320
2017-06-13T15:15:52.919Z,2352
2017-06-13T15:16:34.401Z,2324
2017-06-13T15:17:15.107Z,2284
2017-06-13T15:17:55.715Z,2284
2017-06-13T15:18:36.392Z,2280
2017-06-13T15:19:17.037Z,2232
2017-06-13T15:19:57.707Z,2200
2017-06-13T15:20:38.362Z,2180
2017-06-13T15:21:19.006Z,2192
2017-06-13T15:21:59.647Z,2236
2017-06-13T15:22:40.904Z,2264
2017-06-13T15:23:21.568Z,2296
2017-06-13T15:24:02.209Z,2340
2017-06-13T15:24:42.860Z,2360
2017-06-13T15:25:23.539Z,2360
2017-06-13T15:26:04.190Z,2340
2017-06-13T15:26:44.833Z,2316
2017-06-13T15:27:25.489Z,2296
2017-06-13T15:28:06.204Z,2268
2017-06-13T15:28:46.834Z,2260